sensor_id;sensor_type;location;lat;lon;timestamp;temperature;humidity
5086;DHT22;4715;51.660;7.082;2023-04-24T00:01:12;11.80;99.90
5086;DHT22;4715;51.660;7.082;2023-04-24T00:03:35;11.70;99.90
5086;DHT22;4715;51.660;7.082;2023-04-24T00:05:59;11.80;99.90
5086;DHT22;4715;51.660;7.082;2023-04-24T00:08:21;11.80;99.90
5086;DHT22;4715;51.660;7.082;2023-04-24T00:10:44;11.80;99.90
5086;DHT22;4715;51.660;7.082;2023-04-24T00:13:07;11.80;99.90
5086;DHT22;4715;51.660;7.082;2023-04-24T00:15:29;11.80;99.90
5086;DHT22;4715;51.660;7.082;2023-04-24T00:17:52;11.80;99.90
5086;DHT22;4715;51.660;7.082;2023-04-24T00:20:14;11.70;99.90
5086;DHT22;4715;51.660;7.082;2023-04-24T00:22:36;11.80;99.90
5086;DHT22;4715;51.660;7.082;2023-04-24T00:24:58;11.80;99.90
5086;DHT22;4715;51.660;7.082;2023-04-24T00:27:19;11.80;99.90
5086;DHT22;4715;51.660;7.082;2023-04-24T00:29:43;11.70;99.90
5086;DHT22;4715;51.660;7.082;2023-04-24T00:32:04;11.80;99.90
5086;DHT22;4715;51.660;7.082;2023-04-24T00:34:26;11.80;99.90
5086;DHT22;4715;51.660;7.082;2023-04-24T00:36:48;11.80;99.90
5086;DHT22;4715;51.660;7.082;2023-04-24T00:39:12;11.80;99.90
5086;DHT22;4715;51.660;7.082;2023-04-24T00:41:35;11.80;99.90
5086;DHT22;4715;51.660;7.082;2023-04-24T00:43:57;11.80;99.90
5086;DHT22;4715;51.660;7.082;2023-04-24T00:46:20;11.70;99.90
5086;DHT22;4715;51.660;7.082;2023-04-24T00:48:43;11.80;99.90
5086;DHT22;4715;51.660;7.082;2023-04-24T00:51:05;11.80;99.90
5086;DHT22;4715;51.660;7.082;2023-04-24T00:53:26;11.70;99.90
5086;DHT22;4715;51.660;7.082;2023-04-24T00:55:48;11.80;99.90
5086;DHT22;4715;51.660;7.082;2023-04-24T00:58:10;11.70;99.90
5086;DHT22;4715;51.660;7.082;2023-04-24T01:00:32;11.70;99.90
5086;DHT22;4715;51.660;7.082;2023-04-24T01:02:56;11.70;99.90
5086;DHT22;4715;51.660;7.082;2023-04-24T01:05:19;11.70;99.90
5086;DHT22;4715;51.660;7.082;2023-04-24T01:07:42;11.60;99.90
5086;DHT22;4715;51.660;7.082;2023-04-24T01:10:07;11.60;99.90
5086;DHT22;4715;51.660;7.082;2023-04-24T01:12:30;11.60;99.90
5086;DHT22;4715;51.660;7.082;2023-04-24T01:14:52;11.50;99.90
5086;DHT22;4715;51.660;7.082;2023-04-24T01:17:21;11.50;99.90
5086;DHT22;4715;51.660;7.082;2023-04-24T01:19:44;11.50;99.90
5086;DHT22;4715;51.660;7.082;2023-04-24T01:22:13;11.50;99.90
5086;DHT22;4715;51.660;7.082;2023-04-24T01:24:35;11.40;99.90
5086;DHT22;4715;51.660;7.082;2023-04-24T01:26:56;11.40;99.90
5086;DHT22;4715;51.660;7.082;2023-04-24T01:29:19;11.30;99.90
5086;DHT22;4715;51.660;7.082;2023-04-24T01:31:41;11.30;99.90
5086;DHT22;4715;51.660;7.082;2023-04-24T01:34:03;11.30;99.90
5086;DHT22;4715;51.660;7.082;2023-04-24T01:36:27;11.20;99.90
5086;DHT22;4715;51.660;7.082;2023-04-24T01:38:51;11.20;99.90
5086;DHT22;4715;51.660;7.082;2023-04-24T01:41:13;11.20;99.90
5086;DHT22;4715;51.660;7.082;2023-04-24T01:43:37;11.10;99.90
5086;DHT22;4715;51.660;7.082;2023-04-24T01:45:59;11.10;99.90
5086;DHT22;4715;51.660;7.082;2023-04-24T01:48:21;11.10;99.90
5086;DHT22;4715;51.660;7.082;2023-04-24T01:50:42;11.00;99.90
5086;DHT22;4715;51.660;7.082;2023-04-24T01:53:04;10.90;99.90
5086;DHT22;4715;51.660;7.082;2023-04-24T01:55:28;10.90;99.90
5086;DHT22;4715;51.660;7.082;2023-04-24T01:57:50;10.80;99.90
5086;DHT22;4715;51.660;7.082;2023-04-24T02:00:14;10.70;99.90
5086;DHT22;4715;51.660;7.082;2023-04-24T02:02:35;10.70;99.90
5086;DHT22;4715;51.660;7.082;2023-04-24T02:04:58;10.70;99.90
5086;DHT22;4715;51.660;7.082;2023-04-24T02:07:19;10.70;99.90
5086;DHT22;4715;51.660;7.082;2023-04-24T02:09:41;10.60;99.90
5086;DHT22;4715;51.660;7.082;2023-04-24T02:12:05;10.60;99.90
5086;DHT22;4715;51.660;7.082;2023-04-24T02:14:26;10.60;99.90
5086;DHT22;4715;51.660;7.082;2023-04-24T02:16:48;10.60;99.90
5086;DHT22;4715;51.660;7.082;2023-04-24T02:19:10;10.60;99.90
5086;DHT22;4715;51.660;7.082;2023-04-24T02:21:33;10.60;99.90
5086;DHT22;4715;51.660;7.082;2023-04-24T02:23:57;10.60;99.90
5086;DHT22;4715;51.660;7.082;2023-04-24T02:26:19;10.60;99.90
5086;DHT22;4715;51.660;7.082;2023-04-24T02:28:42;10.60;99.90
5086;DHT22;4715;51.660;7.082;2023-04-24T02:31:04;10.50;99.90
5086;DHT22;4715;51.660;7.082;2023-04-24T02:33:26;10.60;99.90
5086;DHT22;4715;51.660;7.082;2023-04-24T02:35:48;10.60;99.90
5086;DHT22;4715;51.660;7.082;2023-04-24T02:38:10;10.60;99.90
5086;DHT22;4715;51.660;7.082;2023-04-24T02:40:32;10.50;99.90
5086;DHT22;4715;51.660;7.082;2023-04-24T02:42:54;10.50;99.90
5086;DHT22;4715;51.660;7.082;2023-04-24T02:45:17;10.60;99.90
5086;DHT22;4715;51.660;7.082;2023-04-24T02:47:39;10.50;99.90
5086;DHT22;4715;51.660;7.082;2023-04-24T02:50:01;10.50;99.90
5086;DHT22;4715;51.660;7.082;2023-04-24T02:52:23;10.50;99.90
5086;DHT22;4715;51.660;7.082;2023-04-24T02:54:45;10.50;99.90
5086;DHT22;4715;51.660;7.082;2023-04-24T02:57:06;10.50;99.90
5086;DHT22;4715;51.660;7.082;2023-04-24T02:59:28;10.50;99.90
5086;DHT22;4715;51.660;7.082;2023-04-24T03:01:52;10.50;99.90
5086;DHT22;4715;51.660;7.082;2023-04-24T03:04:13;10.40;99.90
5086;DHT22;4715;51.660;7.082;2023-04-24T03:06:35;10.40;99.90
5086;DHT22;4715;51.660;7.082;2023-04-24T03:08:57;10.40;99.90
5086;DHT22;4715;51.660;7.082;2023-04-24T03:11:19;10.40;99.90
5086;DHT22;4715;51.660;7.082;2023-04-24T03:13:41;10.30;99.90
5086;DHT22;4715;51.660;7.082;2023-04-24T03:16:03;10.30;99.90
5086;DHT22;4715;51.660;7.082;2023-04-24T03:18:27;10.30;99.90
5086;DHT22;4715;51.660;7.082;2023-04-24T03:20:49;10.30;99.90
5086;DHT22;4715;51.660;7.082;2023-04-24T03:23:11;10.30;99.90
5086;DHT22;4715;51.660;7.082;2023-04-24T03:25:33;10.30;99.90
5086;DHT22;4715;51.660;7.082;2023-04-24T03:27:55;10.30;99.90
5086;DHT22;4715;51.660;7.082;2023-04-24T03:30:16;10.30;99.90
5086;DHT22;4715;51.660;7.082;2023-04-24T03:32:38;10.30;99.90
5086;DHT22;4715;51.660;7.082;2023-04-24T03:35:02;10.30;99.90
5086;DHT22;4715;51.660;7.082;2023-04-24T03:37:23;10.30;99.90
5086;DHT22;4715;51.660;7.082;2023-04-24T03:39:47;10.30;99.90
5086;DHT22;4715;51.660;7.082;2023-04-24T03:42:08;10.30;99.90
5086;DHT22;4715;51.660;7.082;2023-04-24T03:44:30;10.40;99.90
5086;DHT22;4715;51.660;7.082;2023-04-24T03:46:52;10.30;99.90
5086;DHT22;4715;51.660;7.082;2023-04-24T03:49:14;10.40;99.90
5086;DHT22;4715;51.660;7.082;2023-04-24T03:51:37;10.30;99.90
5086;DHT22;4715;51.660;7.082;2023-04-24T03:53:59;10.30;99.90
5086;DHT22;4715;51.660;7.082;2023-04-24T03:56:21;10.30;99.90
5086;DHT22;4715;51.660;7.082;2023-04-24T03:58:43;10.30;99.90
5086;DHT22;4715;51.660;7.082;2023-04-24T04:01:05;10.30;99.90
5086;DHT22;4715;51.660;7.082;2023-04-24T04:03:27;10.30;99.90
5086;DHT22;4715;51.660;7.082;2023-04-24T04:05:48;10.30;99.90
5086;DHT22;4715;51.660;7.082;2023-04-24T04:08:12;10.30;99.90
5086;DHT22;4715;51.660;7.082;2023-04-24T04:10:33;10.30;99.90
5086;DHT22;4715;51.660;7.082;2023-04-24T04:12:55;10.30;99.90
5086;DHT22;4715;51.660;7.082;2023-04-24T04:15:18;10.30;99.90
5086;DHT22;4715;51.660;7.082;2023-04-24T04:17:40;10.30;99.90
5086;DHT22;4715;51.660;7.082;2023-04-24T04:20:02;10.30;99.90
5086;DHT22;4715;51.660;7.082;2023-04-24T04:22:27;10.30;99.90
5086;DHT22;4715;51.660;7.082;2023-04-24T04:24:51;10.30;99.90
5086;DHT22;4715;51.660;7.082;2023-04-24T04:27:13;10.30;99.90
5086;DHT22;4715;51.660;7.082;2023-04-24T04:29:37;10.30;99.90
5086;DHT22;4715;51.660;7.082;2023-04-24T04:31:59;10.30;99.90
5086;DHT22;4715;51.660;7.082;2023-04-24T04:34:21;10.30;99.90
5086;DHT22;4715;51.660;7.082;2023-04-24T04:36:44;10.30;99.90
5086;DHT22;4715;51.660;7.082;2023-04-24T04:39:06;10.30;99.90
5086;DHT22;4715;51.660;7.082;2023-04-24T04:41:30;10.30;99.90
5086;DHT22;4715;51.660;7.082;2023-04-24T04:43:52;10.30;99.90
5086;DHT22;4715;51.660;7.082;2023-04-24T04:46:14;10.30;99.90
5086;DHT22;4715;51.660;7.082;2023-04-24T04:48:36;10.30;99.90
5086;DHT22;4715;51.660;7.082;2023-04-24T04:50:59;10.30;99.90
5086;DHT22;4715;51.660;7.082;2023-04-24T04:53:21;10.30;99.90
5086;DHT22;4715;51.660;7.082;2023-04-24T04:55:43;10.40;99.90
5086;DHT22;4715;51.660;7.082;2023-04-24T04:58:08;10.40;99.90
5086;DHT22;4715;51.660;7.082;2023-04-24T05:00:30;10.40;99.90
5086;DHT22;4715;51.660;7.082;2023-04-24T05:02:56;10.40;99.90
5086;DHT22;4715;51.660;7.082;2023-04-24T05:05:18;10.40;99.90
5086;DHT22;4715;51.660;7.082;2023-04-24T05:07:40;10.40;99.90
5086;DHT22;4715;51.660;7.082;2023-04-24T05:10:02;10.40;99.90
5086;DHT22;4715;51.660;7.082;2023-04-24T05:12:24;10.40;99.90
5086;DHT22;4715;51.660;7.082;2023-04-24T05:14:47;10.40;99.90
5086;DHT22;4715;51.660;7.082;2023-04-24T05:17:10;10.40;99.90
5086;DHT22;4715;51.660;7.082;2023-04-24T05:19:32;10.40;99.90
5086;DHT22;4715;51.660;7.082;2023-04-24T05:21:56;10.40;99.90
5086;DHT22;4715;51.660;7.082;2023-04-24T05:24:18;10.30;99.90
5086;DHT22;4715;51.660;7.082;2023-04-24T05:26:40;10.40;99.90
5086;DHT22;4715;51.660;7.082;2023-04-24T05:29:02;10.40;99.90
5086;DHT22;4715;51.660;7.082;2023-04-24T05:31:25;10.40;99.90
5086;DHT22;4715;51.660;7.082;2023-04-24T05:33:47;10.30;99.90
5086;DHT22;4715;51.660;7.082;2023-04-24T05:36:11;10.30;99.90
5086;DHT22;4715;51.660;7.082;2023-04-24T05:38:33;10.30;99.90
5086;DHT22;4715;51.660;7.082;2023-04-24T05:40:55;10.30;99.90
5086;DHT22;4715;51.660;7.082;2023-04-24T05:43:17;10.30;99.90
5086;DHT22;4715;51.660;7.082;2023-04-24T05:45:39;10.30;99.90
5086;DHT22;4715;51.660;7.082;2023-04-24T05:48:02;10.20;99.90
5086;DHT22;4715;51.660;7.082;2023-04-24T05:50:24;10.20;99.90
5086;DHT22;4715;51.660;7.082;2023-04-24T05:52:46;10.20;99.90
5086;DHT22;4715;51.660;7.082;2023-04-24T05:55:08;10.10;99.90
5086;DHT22;4715;51.660;7.082;2023-04-24T05:57:30;10.00;99.90
5086;DHT22;4715;51.660;7.082;2023-04-24T05:59:52;9.90;99.90
5086;DHT22;4715;51.660;7.082;2023-04-24T06:02:14;9.90;99.90
5086;DHT22;4715;51.660;7.082;2023-04-24T06:04:37;9.90;99.90
5086;DHT22;4715;51.660;7.082;2023-04-24T06:06:59;9.90;99.90
5086;DHT22;4715;51.660;7.082;2023-04-24T06:09:21;9.90;99.90
5086;DHT22;4715;51.660;7.082;2023-04-24T06:11:43;9.90;99.90
5086;DHT22;4715;51.660;7.082;2023-04-24T06:14:05;9.80;99.90
5086;DHT22;4715;51.660;7.082;2023-04-24T06:16:27;9.80;99.90
5086;DHT22;4715;51.660;7.082;2023-04-24T06:18:49;9.70;99.90
5086;DHT22;4715;51.660;7.082;2023-04-24T06:21:17;9.80;99.90
5086;DHT22;4715;51.660;7.082;2023-04-24T06:23:38;9.80;99.90
5086;DHT22;4715;51.660;7.082;2023-04-24T06:26:00;9.80;99.90
5086;DHT22;4715;51.660;7.082;2023-04-24T06:28:22;9.80;99.90
5086;DHT22;4715;51.660;7.082;2023-04-24T06:30:44;9.80;99.90
5086;DHT22;4715;51.660;7.082;2023-04-24T06:33:06;9.90;99.90
5086;DHT22;4715;51.660;7.082;2023-04-24T06:35:28;9.90;99.90
5086;DHT22;4715;51.660;7.082;2023-04-24T06:37:51;9.90;99.90
5086;DHT22;4715;51.660;7.082;2023-04-24T06:40:13;9.90;99.90
5086;DHT22;4715;51.660;7.082;2023-04-24T06:42:35;9.90;99.90
5086;DHT22;4715;51.660;7.082;2023-04-24T06:44:57;9.90;99.90
5086;DHT22;4715;51.660;7.082;2023-04-24T06:47:20;9.90;99.90
5086;DHT22;4715;51.660;7.082;2023-04-24T06:49:42;9.90;99.90
5086;DHT22;4715;51.660;7.082;2023-04-24T06:52:04;9.80;99.90
5086;DHT22;4715;51.660;7.082;2023-04-24T06:54:45;9.80;99.90
5086;DHT22;4715;51.660;7.082;2023-04-24T06:57:07;9.80;99.90
5086;DHT22;4715;51.660;7.082;2023-04-24T06:59:30;9.70;99.90
5086;DHT22;4715;51.660;7.082;2023-04-24T07:01:51;9.70;99.90
5086;DHT22;4715;51.660;7.082;2023-04-24T07:04:13;9.70;99.90
5086;DHT22;4715;51.660;7.082;2023-04-24T07:06:35;9.70;99.90
5086;DHT22;4715;51.660;7.082;2023-04-24T07:09:06;9.80;99.90
5086;DHT22;4715;51.660;7.082;2023-04-24T07:11:31;9.80;99.90
5086;DHT22;4715;51.660;7.082;2023-04-24T07:13:53;9.80;99.90
5086;DHT22;4715;51.660;7.082;2023-04-24T07:16:15;9.80;99.90
5086;DHT22;4715;51.660;7.082;2023-04-24T07:18:38;9.80;99.90
5086;DHT22;4715;51.660;7.082;2023-04-24T07:21:00;9.70;99.90
5086;DHT22;4715;51.660;7.082;2023-04-24T07:23:22;9.70;99.90
5086;DHT22;4715;51.660;7.082;2023-04-24T07:25:44;9.70;99.90
5086;DHT22;4715;51.660;7.082;2023-04-24T07:28:07;9.70;99.90
5086;DHT22;4715;51.660;7.082;2023-04-24T07:30:29;9.70;99.90
5086;DHT22;4715;51.660;7.082;2023-04-24T07:32:55;9.70;99.90
5086;DHT22;4715;51.660;7.082;2023-04-24T07:35:17;9.70;99.90
5086;DHT22;4715;51.660;7.082;2023-04-24T07:37:39;9.70;99.90
5086;DHT22;4715;51.660;7.082;2023-04-24T07:40:01;9.70;99.90
5086;DHT22;4715;51.660;7.082;2023-04-24T07:42:24;9.70;99.90
5086;DHT22;4715;51.660;7.082;2023-04-24T07:44:47;9.60;99.90
5086;DHT22;4715;51.660;7.082;2023-04-24T07:47:09;9.60;99.90
5086;DHT22;4715;51.660;7.082;2023-04-24T07:49:31;9.50;99.90
5086;DHT22;4715;51.660;7.082;2023-04-24T07:51:54;9.40;99.90
5086;DHT22;4715;51.660;7.082;2023-04-24T07:54:16;9.30;99.90
5086;DHT22;4715;51.660;7.082;2023-04-24T07:56:38;9.30;99.90
5086;DHT22;4715;51.660;7.082;2023-04-24T07:59:00;9.20;99.90
5086;DHT22;4715;51.660;7.082;2023-04-24T08:01:38;9.20;99.90
5086;DHT22;4715;51.660;7.082;2023-04-24T08:04:00;9.20;99.90
5086;DHT22;4715;51.660;7.082;2023-04-24T08:06:21;9.30;99.90
5086;DHT22;4715;51.660;7.082;2023-04-24T08:08:43;9.40;99.90
5086;DHT22;4715;51.660;7.082;2023-04-24T08:11:05;9.50;99.90
5086;DHT22;4715;51.660;7.082;2023-04-24T08:13:27;9.50;99.90
5086;DHT22;4715;51.660;7.082;2023-04-24T08:15:49;9.50;99.90
5086;DHT22;4715;51.660;7.082;2023-04-24T08:18:13;9.50;99.90
5086;DHT22;4715;51.660;7.082;2023-04-24T08:20:36;9.50;99.90
5086;DHT22;4715;51.660;7.082;2023-04-24T08:22:58;9.50;99.90
5086;DHT22;4715;51.660;7.082;2023-04-24T08:25:20;9.50;99.90
5086;DHT22;4715;51.660;7.082;2023-04-24T08:27:43;9.40;99.90
5086;DHT22;4715;51.660;7.082;2023-04-24T08:30:06;9.40;99.90
5086;DHT22;4715;51.660;7.082;2023-04-24T08:32:29;9.30;99.90
5086;DHT22;4715;51.660;7.082;2023-04-24T08:34:52;9.30;99.90
5086;DHT22;4715;51.660;7.082;2023-04-24T08:37:16;9.30;99.90
5086;DHT22;4715;51.660;7.082;2023-04-24T08:39:38;9.20;99.90
5086;DHT22;4715;51.660;7.082;2023-04-24T08:42:00;9.20;99.90
5086;DHT22;4715;51.660;7.082;2023-04-24T08:44:28;9.30;99.90
5086;DHT22;4715;51.660;7.082;2023-04-24T08:46:50;9.20;99.90
5086;DHT22;4715;51.660;7.082;2023-04-24T08:49:13;9.20;99.90
5086;DHT22;4715;51.660;7.082;2023-04-24T08:51:39;9.20;99.90
5086;DHT22;4715;51.660;7.082;2023-04-24T08:54:01;9.10;99.90
5086;DHT22;4715;51.660;7.082;2023-04-24T08:56:24;9.10;99.90
5086;DHT22;4715;51.660;7.082;2023-04-24T08:58:46;9.00;99.90
5086;DHT22;4715;51.660;7.082;2023-04-24T09:01:09;9.00;99.90
5086;DHT22;4715;51.660;7.082;2023-04-24T09:03:31;9.00;99.90
5086;DHT22;4715;51.660;7.082;2023-04-24T09:05:55;9.00;99.90
5086;DHT22;4715;51.660;7.082;2023-04-24T09:08:19;9.00;99.90
5086;DHT22;4715;51.660;7.082;2023-04-24T09:10:41;9.10;99.90
5086;DHT22;4715;51.660;7.082;2023-04-24T09:13:03;9.10;99.90
5086;DHT22;4715;51.660;7.082;2023-04-24T09:15:26;9.20;99.90
5086;DHT22;4715;51.660;7.082;2023-04-24T09:17:48;9.20;99.90
5086;DHT22;4715;51.660;7.082;2023-04-24T09:20:10;9.20;99.90
5086;DHT22;4715;51.660;7.082;2023-04-24T09:22:32;9.20;99.90
5086;DHT22;4715;51.660;7.082;2023-04-24T09:25:02;9.20;99.90
5086;DHT22;4715;51.660;7.082;2023-04-24T09:27:25;9.30;99.90
5086;DHT22;4715;51.660;7.082;2023-04-24T09:29:53;9.40;99.90
5086;DHT22;4715;51.660;7.082;2023-04-24T09:32:20;9.50;99.90
5086;DHT22;4715;51.660;7.082;2023-04-24T09:34:43;9.50;99.90
5086;DHT22;4715;51.660;7.082;2023-04-24T09:37:05;9.60;99.90
5086;DHT22;4715;51.660;7.082;2023-04-24T09:39:27;9.60;99.90
5086;DHT22;4715;51.660;7.082;2023-04-24T09:41:52;9.60;99.90
5086;DHT22;4715;51.660;7.082;2023-04-24T09:44:16;9.50;99.90
5086;DHT22;4715;51.660;7.082;2023-04-24T09:46:40;9.50;99.90
5086;DHT22;4715;51.660;7.082;2023-04-24T09:49:08;9.40;99.90
5086;DHT22;4715;51.660;7.082;2023-04-24T09:51:35;9.40;99.90
5086;DHT22;4715;51.660;7.082;2023-04-24T09:53:59;9.40;99.90
5086;DHT22;4715;51.660;7.082;2023-04-24T09:56:21;9.30;99.90
5086;DHT22;4715;51.660;7.082;2023-04-24T09:58:46;9.20;99.90
5086;DHT22;4715;51.660;7.082;2023-04-24T10:01:08;9.20;99.90
5086;DHT22;4715;51.660;7.082;2023-04-24T10:03:30;9.20;99.90
5086;DHT22;4715;51.660;7.082;2023-04-24T10:05:53;9.20;99.90
5086;DHT22;4715;51.660;7.082;2023-04-24T10:08:15;9.20;99.90
5086;DHT22;4715;51.660;7.082;2023-04-24T10:10:40;9.10;99.90
5086;DHT22;4715;51.660;7.082;2023-04-24T10:13:02;9.10;99.90
5086;DHT22;4715;51.660;7.082;2023-04-24T10:15:26;9.10;99.90
5086;DHT22;4715;51.660;7.082;2023-04-24T10:17:49;9.00;99.90
5086;DHT22;4715;51.660;7.082;2023-04-24T10:20:13;9.00;99.90
5086;DHT22;4715;51.660;7.082;2023-04-24T10:22:36;9.00;99.90
5086;DHT22;4715;51.660;7.082;2023-04-24T10:24:59;9.10;99.90
5086;DHT22;4715;51.660;7.082;2023-04-24T10:27:21;9.00;99.90
5086;DHT22;4715;51.660;7.082;2023-04-24T10:29:45;9.10;99.90
5086;DHT22;4715;51.660;7.082;2023-04-24T10:32:10;9.00;99.90
5086;DHT22;4715;51.660;7.082;2023-04-24T10:34:33;9.10;99.90
5086;DHT22;4715;51.660;7.082;2023-04-24T10:36:57;9.10;99.90
5086;DHT22;4715;51.660;7.082;2023-04-24T10:39:20;9.10;99.90
5086;DHT22;4715;51.660;7.082;2023-04-24T10:41:43;9.10;99.90
5086;DHT22;4715;51.660;7.082;2023-04-24T10:44:05;9.20;99.90
5086;DHT22;4715;51.660;7.082;2023-04-24T10:46:30;9.10;99.90
5086;DHT22;4715;51.660;7.082;2023-04-24T10:48:54;9.10;99.90
5086;DHT22;4715;51.660;7.082;2023-04-24T10:51:16;9.10;99.90
5086;DHT22;4715;51.660;7.082;2023-04-24T10:53:38;9.10;99.90
5086;DHT22;4715;51.660;7.082;2023-04-24T10:56:03;9.00;99.90
5086;DHT22;4715;51.660;7.082;2023-04-24T10:58:37;9.00;99.90
5086;DHT22;4715;51.660;7.082;2023-04-24T11:01:00;9.00;99.90
5086;DHT22;4715;51.660;7.082;2023-04-24T11:03:24;8.90;99.90
5086;DHT22;4715;51.660;7.082;2023-04-24T11:05:56;9.00;99.90
5086;DHT22;4715;51.660;7.082;2023-04-24T11:08:29;9.00;99.90
5086;DHT22;4715;51.660;7.082;2023-04-24T11:10:57;9.00;99.90
5086;DHT22;4715;51.660;7.082;2023-04-24T11:13:22;9.10;99.90
5086;DHT22;4715;51.660;7.082;2023-04-24T11:15:45;9.00;99.90
5086;DHT22;4715;51.660;7.082;2023-04-24T11:18:37;9.00;99.90
5086;DHT22;4715;51.660;7.082;2023-04-24T11:21:10;8.90;99.90
5086;DHT22;4715;51.660;7.082;2023-04-24T11:23:36;9.00;99.90
5086;DHT22;4715;51.660;7.082;2023-04-24T11:26:10;8.90;99.90
5086;DHT22;4715;51.660;7.082;2023-04-24T11:28:34;9.00;99.90
5086;DHT22;4715;51.660;7.082;2023-04-24T11:30:57;9.00;99.90
5086;DHT22;4715;51.660;7.082;2023-04-24T11:33:20;9.10;99.90
5086;DHT22;4715;51.660;7.082;2023-04-24T11:35:42;9.10;99.90
5086;DHT22;4715;51.660;7.082;2023-04-24T11:38:06;9.20;99.90
5086;DHT22;4715;51.660;7.082;2023-04-24T11:40:29;9.30;99.90
5086;DHT22;4715;51.660;7.082;2023-04-24T11:42:52;9.50;99.90
5086;DHT22;4715;51.660;7.082;2023-04-24T11:45:22;9.60;99.90
5086;DHT22;4715;51.660;7.082;2023-04-24T11:47:44;9.70;99.90
5086;DHT22;4715;51.660;7.082;2023-04-24T11:50:08;9.80;99.90
5086;DHT22;4715;51.660;7.082;2023-04-24T11:52:31;9.90;99.90
5086;DHT22;4715;51.660;7.082;2023-04-24T11:54:56;10.00;99.90
5086;DHT22;4715;51.660;7.082;2023-04-24T11:57:19;10.10;99.90
5086;DHT22;4715;51.660;7.082;2023-04-24T11:59:42;10.10;99.90
5086;DHT22;4715;51.660;7.082;2023-04-24T12:02:04;10.10;99.90
5086;DHT22;4715;51.660;7.082;2023-04-24T12:04:26;10.20;99.90
5086;DHT22;4715;51.660;7.082;2023-04-24T12:07:00;10.20;99.90
5086;DHT22;4715;51.660;7.082;2023-04-24T12:09:22;10.30;99.90
5086;DHT22;4715;51.660;7.082;2023-04-24T12:11:54;10.30;99.90
5086;DHT22;4715;51.660;7.082;2023-04-24T12:14:17;10.30;99.90
5086;DHT22;4715;51.660;7.082;2023-04-24T12:16:39;10.30;99.90
5086;DHT22;4715;51.660;7.082;2023-04-24T12:19:02;10.20;99.90
5086;DHT22;4715;51.660;7.082;2023-04-24T12:21:25;10.20;99.90
5086;DHT22;4715;51.660;7.082;2023-04-24T12:27:19;10.20;99.90
5086;DHT22;4715;51.660;7.082;2023-04-24T12:29:51;10.10;99.90
5086;DHT22;4715;51.660;7.082;2023-04-24T12:32:16;10.20;99.90
5086;DHT22;4715;51.660;7.082;2023-04-24T12:34:38;10.20;99.90
5086;DHT22;4715;51.660;7.082;2023-04-24T12:37:10;10.20;99.90
5086;DHT22;4715;51.660;7.082;2023-04-24T12:39:32;10.20;99.90
5086;DHT22;4715;51.660;7.082;2023-04-24T12:41:57;10.20;99.90
5086;DHT22;4715;51.660;7.082;2023-04-24T12:44:28;10.30;99.90
5086;DHT22;4715;51.660;7.082;2023-04-24T12:46:51;10.30;99.90
5086;DHT22;4715;51.660;7.082;2023-04-24T12:49:12;10.30;99.90
5086;DHT22;4715;51.660;7.082;2023-04-24T12:51:34;10.20;99.90
5086;DHT22;4715;51.660;7.082;2023-04-24T12:53:56;10.20;99.90
5086;DHT22;4715;51.660;7.082;2023-04-24T12:56:18;10.20;99.90
5086;DHT22;4715;51.660;7.082;2023-04-24T12:58:41;10.20;99.90
5086;DHT22;4715;51.660;7.082;2023-04-24T13:01:04;10.10;99.90
5086;DHT22;4715;51.660;7.082;2023-04-24T13:03:26;10.00;99.90
5086;DHT22;4715;51.660;7.082;2023-04-24T13:05:48;10.10;99.90
5086;DHT22;4715;51.660;7.082;2023-04-24T13:08:10;10.10;99.90
5086;DHT22;4715;51.660;7.082;2023-04-24T13:10:33;10.10;99.90
5086;DHT22;4715;51.660;7.082;2023-04-24T13:12:57;10.20;99.90
5086;DHT22;4715;51.660;7.082;2023-04-24T13:15:19;10.20;99.90
5086;DHT22;4715;51.660;7.082;2023-04-24T13:17:56;10.20;99.90
5086;DHT22;4715;51.660;7.082;2023-04-24T13:20:24;10.10;99.90
5086;DHT22;4715;51.660;7.082;2023-04-24T13:22:47;10.10;99.90
5086;DHT22;4715;51.660;7.082;2023-04-24T13:25:09;10.00;99.90
5086;DHT22;4715;51.660;7.082;2023-04-24T13:27:31;9.90;99.90
5086;DHT22;4715;51.660;7.082;2023-04-24T13:29:54;9.90;99.90
5086;DHT22;4715;51.660;7.082;2023-04-24T13:32:16;9.80;99.90
5086;DHT22;4715;51.660;7.082;2023-04-24T13:34:40;9.80;99.90
5086;DHT22;4715;51.660;7.082;2023-04-24T13:37:03;9.90;99.90
5086;DHT22;4715;51.660;7.082;2023-04-24T13:39:35;9.90;99.90
5086;DHT22;4715;51.660;7.082;2023-04-24T13:42:05;10.00;99.90
5086;DHT22;4715;51.660;7.082;2023-04-24T13:44:27;10.10;99.90
5086;DHT22;4715;51.660;7.082;2023-04-24T13:46:52;10.20;99.90
5086;DHT22;4715;51.660;7.082;2023-04-24T13:49:18;10.40;99.90
5086;DHT22;4715;51.660;7.082;2023-04-24T13:51:43;10.50;99.90
5086;DHT22;4715;51.660;7.082;2023-04-24T13:54:09;10.50;99.90
5086;DHT22;4715;51.660;7.082;2023-04-24T13:56:33;10.60;99.90
5086;DHT22;4715;51.660;7.082;2023-04-24T13:58:56;10.60;99.90
5086;DHT22;4715;51.660;7.082;2023-04-24T14:01:19;10.50;99.90
5086;DHT22;4715;51.660;7.082;2023-04-24T14:03:42;10.40;99.90
5086;DHT22;4715;51.660;7.082;2023-04-24T14:06:06;10.40;99.90
5086;DHT22;4715;51.660;7.082;2023-04-24T14:08:30;10.30;99.90
5086;DHT22;4715;51.660;7.082;2023-04-24T14:10:52;10.30;99.90
5086;DHT22;4715;51.660;7.082;2023-04-24T14:13:22;10.30;99.90
5086;DHT22;4715;51.660;7.082;2023-04-24T14:15:44;10.40;99.90
5086;DHT22;4715;51.660;7.082;2023-04-24T14:18:07;10.40;99.90
5086;DHT22;4715;51.660;7.082;2023-04-24T14:20:29;10.40;99.90
5086;DHT22;4715;51.660;7.082;2023-04-24T14:22:51;10.50;99.90
5086;DHT22;4715;51.660;7.082;2023-04-24T14:25:15;10.50;99.90
5086;DHT22;4715;51.660;7.082;2023-04-24T14:27:36;10.50;99.90
5086;DHT22;4715;51.660;7.082;2023-04-24T14:29:58;10.40;99.90
5086;DHT22;4715;51.660;7.082;2023-04-24T14:32:20;10.30;99.90
5086;DHT22;4715;51.660;7.082;2023-04-24T14:34:42;10.20;99.90
5086;DHT22;4715;51.660;7.082;2023-04-24T14:37:04;10.00;99.90
5086;DHT22;4715;51.660;7.082;2023-04-24T14:39:26;9.90;99.90
5086;DHT22;4715;51.660;7.082;2023-04-24T14:41:49;9.70;99.90
5086;DHT22;4715;51.660;7.082;2023-04-24T14:44:11;9.70;99.90
5086;DHT22;4715;51.660;7.082;2023-04-24T14:46:33;9.70;99.90
5086;DHT22;4715;51.660;7.082;2023-04-24T14:48:55;9.80;99.90
5086;DHT22;4715;51.660;7.082;2023-04-24T14:51:18;10.00;99.90
5086;DHT22;4715;51.660;7.082;2023-04-24T14:53:40;10.10;99.90
5086;DHT22;4715;51.660;7.082;2023-04-24T14:56:02;10.30;99.90
5086;DHT22;4715;51.660;7.082;2023-04-24T14:58:43;10.60;99.90
5086;DHT22;4715;51.660;7.082;2023-04-24T15:01:05;10.90;99.90
5086;DHT22;4715;51.660;7.082;2023-04-24T15:03:30;11.00;99.90
5086;DHT22;4715;51.660;7.082;2023-04-24T15:05:54;10.90;99.90
5086;DHT22;4715;51.660;7.082;2023-04-24T15:08:16;10.80;99.90
5086;DHT22;4715;51.660;7.082;2023-04-24T15:10:38;10.70;99.90
5086;DHT22;4715;51.660;7.082;2023-04-24T15:13:01;10.70;99.90
5086;DHT22;4715;51.660;7.082;2023-04-24T15:15:25;10.70;99.90
5086;DHT22;4715;51.660;7.082;2023-04-24T15:17:47;10.70;99.90
5086;DHT22;4715;51.660;7.082;2023-04-24T15:20:14;10.80;99.90
5086;DHT22;4715;51.660;7.082;2023-04-24T15:22:43;10.90;99.90
5086;DHT22;4715;51.660;7.082;2023-04-24T15:25:06;11.00;99.90
5086;DHT22;4715;51.660;7.082;2023-04-24T15:27:39;11.10;99.90
5086;DHT22;4715;51.660;7.082;2023-04-24T15:30:03;11.00;99.90
5086;DHT22;4715;51.660;7.082;2023-04-24T15:32:27;10.90;99.90
5086;DHT22;4715;51.660;7.082;2023-04-24T15:34:48;10.80;99.90
5086;DHT22;4715;51.660;7.082;2023-04-24T15:37:11;10.70;99.90
5086;DHT22;4715;51.660;7.082;2023-04-24T15:39:33;10.60;99.90
5086;DHT22;4715;51.660;7.082;2023-04-24T15:41:55;10.50;99.90
5086;DHT22;4715;51.660;7.082;2023-04-24T15:44:18;10.40;99.90